Grou, Netherlands
Current Conditions -  °F | °C
As of 1:13 PM on Thursday 23 Oct 2014 (Local Time) from EHLW Reporting Station
Haze Haze  
Wind Chill: 57°   Ceiling: 900
Heat Index: 57°   Visibility: 6mi
Dew Point: 54°   Wind: 12mph
Humidity: 88%   Direction: 200°SSW
Pressure: 30.12"   Gusts: NA
Location:  53.1°N, 5.83°E
Report Text: EHLW 231113Z AUTO 20010KT 9000 BR SCT008 BKN009 BKN011 14/12 Q1020 GRN 19010KT 9000 FEW009 SCT010 OVC110 BECMG FEW016 SCT024
Loading
Personal Weather Stations






























Interactive Weather Map
Tropical Storm Tracking
New forecast layout! Learn more

10-Day Weather Forecast

Advertisements
Track Severe Weather on mobile